Polaris — JD2797 — position and weather

sailwx.info

Track history (hours):
 
Tides and Currents Weather Stations Pressure Air Temp Water Temp Dewpoint Dewpoint Depression Visibility Wind Speed Wind Dir Waves Ship Positions

Polaris

Last reported at 2016-May-31 17:34 UTC. Time now 2016-May-31 18:01 UTC.
Position N 35°22' E 139°43'.

Length 30 m; draft 2.6 m.

Type: Pilot. MMSI: 431000764.

Date/timePositionNaut miles runAvg speedWind from/ knotsBaromVisibWave heightAir tempDewpointWater temp
2016-May-31 17:34N 35°22' E 139°43'6 0.3
2016-May-30 22:31N 35°19' E 139°38'8 7.9
2016-May-30 21:34N 35°24' E 139°45'10 9.6
2016-May-30 20:33N 35°14' E 139°47'1 1.2
2016-May-30 19:33N 35°14' E 139°46'7 7.2
2016-May-30 18:33N 35°19' E 139°38'0 0.0
2016-May-29 11:14N 35°19' E 139°38'912.2
2016-May-29 10:32N 35°12' E 139°46'1111.4
2016-May-29 09:34N 35°23' E 139°42'2 1.7
2016-May-29 08:33N 35°21' E 139°43'5 4.9
2016-May-29 07:33N 35°19' E 139°38'0 0.0
2016-May-29 06:33N 35°19' E 139°38'0 0.0
2016-May-29 05:33N 35°19' E 139°38'0 0.0
2016-May-29 04:32N 35°19' E 139°38'0 0.0
2016-May-29 03:33N 35°19' E 139°38'0 0.0
2016-May-29 02:32N 35°19' E 139°38'0 0.0
2016-May-29 01:33N 35°19' E 139°38'0 0.0
2016-May-29 00:33N 35°19' E 139°38'0 0.0
2016-May-28 23:30N 35°19' E 139°38'8 8.6
2016-May-28 22:33N 35°24' E 139°46'1212.0
2016-May-28 21:33N 35°12' E 139°47'6 6.0
2016-May-28 20:33N 35°17' E 139°44'4 4.2
2016-May-28 19:30N 35°19' E 139°38'0 0.0
2016-May-28 18:31N 35°19' E 139°38'0 0.0
2016-May-28 17:29N 35°19' E 139°38'0 0.0
2016-May-28 16:33N 35°19' E 139°38'0 0.0
2016-May-28 15:25N 35°19' E 139°38'0 0.0
2016-May-28 14:31N 35°19' E 139°38'0 0.0
2016-May-28 13:30N 35°19' E 139°38'0 0.0
2016-May-28 12:33N 35°19' E 139°38'0 0.0
2016-May-28 11:31N 35°19' E 139°38'0 0.0
2016-May-28 10:33N 35°19' E 139°38'0 0.0
2016-May-28 09:32N 35°19' E 139°38'1 0.8
2016-May-28 08:33N 35°19' E 139°39'5 5.0
2016-May-28 07:33N 35°21' E 139°45'1110.6
2016-May-28 06:33N 35°10' E 139°47'1010.1
2016-May-28 05:33N 35°19' E 139°39'1 0.9
2016-May-28 04:32N 35°19' E 139°38'0 0.0
2016-May-28 03:30N 35°19' E 139°38'0 0.0
2016-May-28 02:33N 35°19' E 139°38'0 0.0
2016-May-28 01:33N 35°19' E 139°38'0 0.0
2016-May-28 00:33N 35°19' E 139°38'0 0.0
2016-May-27 23:32N 35°19' E 139°38'8 7.7
2016-May-27 22:32N 35°14' E 139°46'1010.0
2016-May-27 21:34N 35°23' E 139°42'1 1.0
2016-May-27 20:33N 35°22' E 139°43'4 0.1
2016-May-26 10:34N 35°18' E 139°41'2 2.4
2016-May-26 09:33N 35°18' E 139°44'1111.2
2016-May-26 08:33N 35°28' E 139°49'1312.7
2016-May-26 07:33N 35°35' E 140°03'3 3.0
2016-May-26 06:33N 35°35' E 140°06'1111.5
2016-May-26 05:33N 35°30' E 139°54'1212.5
2016-May-26 04:33N 35°27' E 139°39'3 3.2
2016-May-26 03:33N 35°25' E 139°42'7 6.7
2016-May-26 02:31N 35°19' E 139°38'0 0.0
2016-May-26 01:31N 35°19' E 139°38'0 0.0
2016-May-26 00:29N 35°19' E 139°38'2 2.4
2016-May-25 23:34N 35°19' E 139°41'2 2.2
2016-May-25 22:33N 35°19' E 139°38'0 0.0
2016-May-25 21:33N 35°19' E 139°38'0 0.0
2016-May-25 20:33N 35°19' E 139°38'0 0.0
2016-May-25 19:32N 35°19' E 139°38'0 0.0
2016-May-25 18:32N 35°19' E 139°38'0 0.0
2016-May-25 17:32N 35°19' E 139°38'0 0.0
2016-May-25 16:33N 35°19' E 139°38'0 0.0
2016-May-25 15:33N 35°19' E 139°38'0 0.0
2016-May-25 14:33N 35°19' E 139°38'0 0.0
2016-May-25 13:31N 35°19' E 139°38'0 0.0
2016-May-25 12:31N 35°19' E 139°38'0 0.0
2016-May-25 11:33N 35°19' E 139°38'9 8.5
2016-May-25 10:31N 35°13' E 139°46'1212.5
2016-May-25 09:33N 35°24' E 139°43'7 6.8
2016-May-25 08:33N 35°19' E 139°38'0 0.0
2016-May-25 07:21N 35°19' E 139°38'0 0.0
2016-May-25 06:33N 35°19' E 139°38'0 0.0
2016-May-25 05:16N 35°19' E 139°38'0 0.0
2016-May-25 04:29N 35°19' E 139°38'0 0.0
2016-May-25 03:28N 35°19' E 139°38'0 0.0
2016-May-25 02:27N 35°19' E 139°38'0 0.0
2016-May-25 01:31N 35°19' E 139°38'2 2.4
2016-May-25 00:33N 35°19' E 139°41'7 7.3
2016-May-24 23:33N 35°27' E 139°40'1211.6
2016-May-24 22:33N 35°16' E 139°45'6 5.8
2016-May-24 21:34N 35°21' E 139°42'1 1.0
2016-May-24 20:33N 35°22' E 139°44'5 5.3
2016-May-24 19:33N 35°19' E 139°38'0 0.0
2016-May-24 18:33N 35°19' E 139°38'0 0.0
2016-May-24 17:33N 35°19' E 139°38'0 0.0
2016-May-24 16:33N 35°19' E 139°38'0 0.0
2016-May-24 15:32N 35°19' E 139°38'0 0.0
2016-May-24 14:30N 35°19' E 139°38'0 0.0
2016-May-24 13:30N 35°19' E 139°38'0 0.0
2016-May-24 12:33N 35°19' E 139°38'0 0.0
2016-May-24 11:32N 35°19' E 139°38'0 0.0
2016-May-24 10:33N 35°19' E 139°38'0 0.0
2016-May-24 09:33N 35°19' E 139°38'3 2.6
2016-May-24 08:33N 35°20' E 139°41'9 8.6
2016-May-24 07:33N 35°13' E 139°47'5 5.0
2016-May-24 06:33N 35°17' E 139°44'5 0.1
2016-May-22 21:10N 35°19' E 139°38'6 9.3
2016-May-22 20:33N 35°16' E 139°45'5 4.8
2016-May-22 19:33N 35°21' E 139°42'3 2.6
2016-May-22 18:33N 35°23' E 139°41'5 4.7
2016-May-22 17:33N 35°19' E 139°38'0 0.0
2016-May-22 16:33N 35°19' E 139°38'0 0.0
2016-May-22 15:33N 35°19' E 139°38'0 0.0
2016-May-22 14:33N 35°19' E 139°38'0 0.0
2016-May-22 13:28N 35°19' E 139°38'0 0.0
2016-May-22 11:25N 35°19' E 139°38'0 0.0
2016-May-22 10:17N 35°19' E 139°38'0 0.0
2016-May-22 09:31N 35°19' E 139°38'2 1.6
2016-May-22 08:34N 35°19' E 139°40'4 3.8
2016-May-22 07:33N 35°17' E 139°45'1110.8
2016-May-22 06:34N 35°28' E 139°48'1312.7
2016-May-22 05:33N 35°34' E 140°02'4 3.8
2016-May-22 04:34N 35°35' E 140°06'9 9.2
2016-May-22 03:34N 35°31' E 139°56'1313.5
2016-May-22 02:34N 35°27' E 139°40'2 2.2
2016-May-22 01:34N 35°25' E 139°42'7 7.3
2016-May-22 00:33N 35°19' E 139°38'0 0.0
2016-May-21 23:33N 35°19' E 139°38'7 6.6
2016-May-21 22:33N 35°15' E 139°45'5 4.9
2016-May-21 21:33N 35°20' E 139°43'7 7.3
2016-May-21 20:33N 35°27' E 139°42'  
Track history (hours):
 
Tides and Currents Weather Stations Pressure Air Temp Water Temp Dewpoint Dewpoint Depression Visibility Wind Speed Wind Dir Waves Ship Positions

Polaris

Last reported at 2016-May-31 17:34 UTC. Time now 2016-May-31 18:01 UTC.
Position N 35°22' E 139°43'.

Length 30 m; draft 2.6 m.

Type: Pilot. MMSI: 431000764.

Date/timePositionNaut miles runAvg speedWind from/ knotsBaromVisibWave heightAir tempDewpointWater temp
2016-May-31 17:34N 35°22' E 139°43'6 0.3
2016-May-30 22:31N 35°19' E 139°38'8 7.9
2016-May-30 21:34N 35°24' E 139°45'10 9.6
2016-May-30 20:33N 35°14' E 139°47'1 1.2
2016-May-30 19:33N 35°14' E 139°46'7 7.2
2016-May-30 18:33N 35°19' E 139°38'0 0.0
2016-May-29 11:14N 35°19' E 139°38'912.2
2016-May-29 10:32N 35°12' E 139°46'1111.4
2016-May-29 09:34N 35°23' E 139°42'2 1.7
2016-May-29 08:33N 35°21' E 139°43'5 4.9
2016-May-29 07:33N 35°19' E 139°38'0 0.0
2016-May-29 06:33N 35°19' E 139°38'0 0.0
2016-May-29 05:33N 35°19' E 139°38'0 0.0
2016-May-29 04:32N 35°19' E 139°38'0 0.0
2016-May-29 03:33N 35°19' E 139°38'0 0.0
2016-May-29 02:32N 35°19' E 139°38'0 0.0
2016-May-29 01:33N 35°19' E 139°38'0 0.0
2016-May-29 00:33N 35°19' E 139°38'0 0.0
2016-May-28 23:30N 35°19' E 139°38'8 8.6
2016-May-28 22:33N 35°24' E 139°46'1212.0
2016-May-28 21:33N 35°12' E 139°47'6 6.0
2016-May-28 20:33N 35°17' E 139°44'4 4.2
2016-May-28 19:30N 35°19' E 139°38'0 0.0
2016-May-28 18:31N 35°19' E 139°38'0 0.0
2016-May-28 17:29N 35°19' E 139°38'0 0.0
2016-May-28 16:33N 35°19' E 139°38'0 0.0
2016-May-28 15:25N 35°19' E 139°38'0 0.0
2016-May-28 14:31N 35°19' E 139°38'0 0.0
2016-May-28 13:30N 35°19' E 139°38'0 0.0
2016-May-28 12:33N 35°19' E 139°38'0 0.0
2016-May-28 11:31N 35°19' E 139°38'0 0.0
2016-May-28 10:33N 35°19' E 139°38'0 0.0
2016-May-28 09:32N 35°19' E 139°38'1 0.8
2016-May-28 08:33N 35°19' E 139°39'5 5.0
2016-May-28 07:33N 35°21' E 139°45'1110.6
2016-May-28 06:33N 35°10' E 139°47'1010.1
2016-May-28 05:33N 35°19' E 139°39'1 0.9
2016-May-28 04:32N 35°19' E 139°38'0 0.0
2016-May-28 03:30N 35°19' E 139°38'0 0.0
2016-May-28 02:33N 35°19' E 139°38'0 0.0
2016-May-28 01:33N 35°19' E 139°38'0 0.0
2016-May-28 00:33N 35°19' E 139°38'0 0.0
2016-May-27 23:32N 35°19' E 139°38'8 7.7
2016-May-27 22:32N 35°14' E 139°46'1010.0
2016-May-27 21:34N 35°23' E 139°42'1 1.0
2016-May-27 20:33N 35°22' E 139°43'4 0.1
2016-May-26 10:34N 35°18' E 139°41'2 2.4
2016-May-26 09:33N 35°18' E 139°44'1111.2
2016-May-26 08:33N 35°28' E 139°49'1312.7
2016-May-26 07:33N 35°35' E 140°03'3 3.0
2016-May-26 06:33N 35°35' E 140°06'1111.5
2016-May-26 05:33N 35°30' E 139°54'1212.5
2016-May-26 04:33N 35°27' E 139°39'3 3.2
2016-May-26 03:33N 35°25' E 139°42'7 6.7
2016-May-26 02:31N 35°19' E 139°38'0 0.0
2016-May-26 01:31N 35°19' E 139°38'0 0.0
2016-May-26 00:29N 35°19' E 139°38'2 2.4
2016-May-25 23:34N 35°19' E 139°41'2 2.2
2016-May-25 22:33N 35°19' E 139°38'0 0.0
2016-May-25 21:33N 35°19' E 139°38'0 0.0
2016-May-25 20:33N 35°19' E 139°38'0 0.0
2016-May-25 19:32N 35°19' E 139°38'0 0.0
2016-May-25 18:32N 35°19' E 139°38'0 0.0
2016-May-25 17:32N 35°19' E 139°38'0 0.0
2016-May-25 16:33N 35°19' E 139°38'0 0.0
2016-May-25 15:33N 35°19' E 139°38'0 0.0
2016-May-25 14:33N 35°19' E 139°38'0 0.0
2016-May-25 13:31N 35°19' E 139°38'0 0.0
2016-May-25 12:31N 35°19' E 139°38'0 0.0
2016-May-25 11:33N 35°19' E 139°38'9 8.5
2016-May-25 10:31N 35°13' E 139°46'1212.5
2016-May-25 09:33N 35°24' E 139°43'7 6.8
2016-May-25 08:33N 35°19' E 139°38'0 0.0
2016-May-25 07:21N 35°19' E 139°38'0 0.0
2016-May-25 06:33N 35°19' E 139°38'0 0.0
2016-May-25 05:16N 35°19' E 139°38'0 0.0
2016-May-25 04:29N 35°19' E 139°38'0 0.0
2016-May-25 03:28N 35°19' E 139°38'0 0.0
2016-May-25 02:27N 35°19' E 139°38'0 0.0
2016-May-25 01:31N 35°19' E 139°38'2 2.4
2016-May-25 00:33N 35°19' E 139°41'7 7.3
2016-May-24 23:33N 35°27' E 139°40'1211.6
2016-May-24 22:33N 35°16' E 139°45'6 5.8
2016-May-24 21:34N 35°21' E 139°42'1 1.0
2016-May-24 20:33N 35°22' E 139°44'5 5.3
2016-May-24 19:33N 35°19' E 139°38'0 0.0
2016-May-24 18:33N 35°19' E 139°38'0 0.0
2016-May-24 17:33N 35°19' E 139°38'0 0.0
2016-May-24 16:33N 35°19' E 139°38'0 0.0
2016-May-24 15:32N 35°19' E 139°38'0 0.0
2016-May-24 14:30N 35°19' E 139°38'0 0.0
2016-May-24 13:30N 35°19' E 139°38'0 0.0
2016-May-24 12:33N 35°19' E 139°38'0 0.0
2016-May-24 11:32N 35°19' E 139°38'0 0.0
2016-May-24 10:33N 35°19' E 139°38'0 0.0
2016-May-24 09:33N 35°19' E 139°38'3 2.6
2016-May-24 08:33N 35°20' E 139°41'9 8.6
2016-May-24 07:33N 35°13' E 139°47'5 5.0
2016-May-24 06:33N 35°17' E 139°44'5 0.1
2016-May-22 21:10N 35°19' E 139°38'6 9.3
2016-May-22 20:33N 35°16' E 139°45'5 4.8
2016-May-22 19:33N 35°21' E 139°42'3 2.6
2016-May-22 18:33N 35°23' E 139°41'5 4.7
2016-May-22 17:33N 35°19' E 139°38'0 0.0
2016-May-22 16:33N 35°19' E 139°38'0 0.0
2016-May-22 15:33N 35°19' E 139°38'0 0.0
2016-May-22 14:33N 35°19' E 139°38'0 0.0
2016-May-22 13:28N 35°19' E 139°38'0 0.0
2016-May-22 11:25N 35°19' E 139°38'0 0.0
2016-May-22 10:17N 35°19' E 139°38'0 0.0
2016-May-22 09:31N 35°19' E 139°38'2 1.6
2016-May-22 08:34N 35°19' E 139°40'4 3.8
2016-May-22 07:33N 35°17' E 139°45'1110.8
2016-May-22 06:34N 35°28' E 139°48'1312.7
2016-May-22 05:33N 35°34' E 140°02'4 3.8
2016-May-22 04:34N 35°35' E 140°06'9 9.2
2016-May-22 03:34N 35°31' E 139°56'1313.5
2016-May-22 02:34N 35°27' E 139°40'2 2.2
2016-May-22 01:34N 35°25' E 139°42'7 7.3
2016-May-22 00:33N 35°19' E 139°38'0 0.0
2016-May-21 23:33N 35°19' E 139°38'7 6.6
2016-May-21 22:33N 35°15' E 139°45'5 4.9
2016-May-21 21:33N 35°20' E 139°43'7 7.3
2016-May-21 20:33N 35°27' E 139°42'  

Dump ship's entire track history